Time,TemperatureF,DewpointF,PressureIn,WindDirection,WindDirectionDegrees,WindSpeedMPH,WindSpeedGustMPH,Humidity,HourlyPrecipIn,Conditions,Clouds,dailyrainin,SoftwareType,DateUTC
2013-02-04 00:05:00,-999.0,-99.9,30.08,North,-999,-999.0,-999.0,-999,-99.99,,,0.00,weatherlink.com 1.10,2013-02-04 05:05:00,
2013-02-04 00:20:00,-999.0,-99.9,30.08,North,-999,-999.0,-999.0,-999,-99.99,,,0.00,weatherlink.com 1.10,2013-02-04 05:20:00,
2013-02-04 00:35:00,-999.0,-99.9,30.08,North,-999,-999.0,-999.0,-999,-99.99,,,0.00,weatherlink.com 1.10,2013-02-04 05:35:00,
2013-02-04 00:50:00,-999.0,-99.9,30.08,North,-999,-999.0,-999.0,-999,-99.99,,,0.00,weatherlink.com 1.10,2013-02-04 05:50:00,
2013-02-04 01:05:00,-999.0,-99.9,30.08,North,-999,-999.0,-999.0,-999,-99.99,,,0.00,weatherlink.com 1.10,2013-02-04 06:05:00,
2013-02-04 01:20:00,-999.0,-99.9,30.08,North,-999,-999.0,-999.0,-999,-99.99,,,0.00,weatherlink.com 1.10,2013-02-04 06:20:00,
2013-02-04 01:35:00,-999.0,-99.9,30.08,North,-999,-999.0,-999.0,-999,-99.99,,,0.00,weatherlink.com 1.10,2013-02-04 06:35:00,
2013-02-04 01:50:00,-999.0,-99.9,30.08,North,-999,-999.0,-999.0,-999,-99.99,,,0.00,weatherlink.com 1.10,2013-02-04 06:50:00,
2013-02-04 02:05:00,-999.0,-99.9,30.08,North,-999,-999.0,-999.0,-999,-99.99,,,0.00,weatherlink.com 1.10,2013-02-04 07:05:00,
2013-02-04 02:20:00,-999.0,-99.9,30.07,North,-999,-999.0,-999.0,-999,-99.99,,,0.00,weatherlink.com 1.10,2013-02-04 07:20:00,
2013-02-04 02:35:00,-999.0,-99.9,30.07,North,-999,-999.0,-999.0,-999,-99.99,,,0.00,weatherlink.com 1.10,2013-02-04 07:35:00,
2013-02-04 02:50:00,-999.0,-99.9,30.07,North,-999,-999.0,-999.0,-999,-99.99,,,0.00,weatherlink.com 1.10,2013-02-04 07:50:00,
2013-02-04 03:05:00,-999.0,-99.9,30.07,North,-999,-999.0,-999.0,-999,-99.99,,,0.00,weatherlink.com 1.10,2013-02-04 08:05:00,
2013-02-04 03:20:00,-999.0,-99.9,30.07,North,-999,-999.0,-999.0,-999,-99.99,,,0.00,weatherlink.com 1.10,2013-02-04 08:20:00,
2013-02-04 03:35:00,-999.0,-99.9,30.07,North,-999,-999.0,-999.0,-999,-99.99,,,0.00,weatherlink.com 1.10,2013-02-04 08:35:00,
2013-02-04 03:50:00,-999.0,-99.9,30.07,North,-999,-999.0,-999.0,-999,-99.99,,,0.00,weatherlink.com 1.10,2013-02-04 08:50:00,
2013-02-04 04:05:00,-999.0,-99.9,30.07,North,-999,-999.0,-999.0,-999,-99.99,,,0.00,weatherlink.com 1.10,2013-02-04 09:05:00,
2013-02-04 04:20:00,-999.0,-99.9,30.07,North,-999,-999.0,-999.0,-999,-99.99,,,0.00,weatherlink.com 1.10,2013-02-04 09:20:00,
2013-02-04 04:35:00,-999.0,-99.9,30.07,North,-999,-999.0,-999.0,-999,-99.99,,,0.00,weatherlink.com 1.10,2013-02-04 09:35:00,
2013-02-04 04:50:00,-999.0,-99.9,30.07,North,-999,-999.0,-999.0,-999,-99.99,,,0.00,weatherlink.com 1.10,2013-02-04 09:50:00,
2013-02-04 05:05:00,-999.0,-99.9,30.07,North,-999,-999.0,-999.0,-999,-99.99,,,0.00,weatherlink.com 1.10,2013-02-04 10:05:00,
2013-02-04 05:20:00,-999.0,-99.9,30.06,North,-999,-999.0,-999.0,-999,-99.99,,,0.00,weatherlink.com 1.10,2013-02-04 10:20:00,
2013-02-04 05:35:00,-999.0,-99.9,30.06,North,-999,-999.0,-999.0,-999,-99.99,,,0.00,weatherlink.com 1.10,2013-02-04 10:35:00,
2013-02-04 05:50:00,-999.0,-99.9,30.05,North,-999,-999.0,-999.0,-999,-99.99,,,0.00,weatherlink.com 1.10,2013-02-04 10:50:00,
2013-02-04 06:05:00,-999.0,-99.9,30.06,North,-999,-999.0,-999.0,-999,-99.99,,,0.00,weatherlink.com 1.10,2013-02-04 11:05:00,
2013-02-04 06:20:00,-999.0,-99.9,30.07,North,-999,-999.0,-999.0,-999,-99.99,,,0.00,weatherlink.com 1.10,2013-02-04 11:20:00,
2013-02-04 06:35:00,-999.0,-99.9,30.07,North,-999,-999.0,-999.0,-999,-99.99,,,0.00,weatherlink.com 1.10,2013-02-04 11:35:00,
2013-02-04 06:50:00,-999.0,-99.9,30.07,North,-999,-999.0,-999.0,-999,-99.99,,,0.00,weatherlink.com 1.10,2013-02-04 11:50:00,
2013-02-04 07:05:00,-999.0,-99.9,30.08,North,-999,-999.0,-999.0,-999,-99.99,,,0.00,weatherlink.com 1.10,2013-02-04 12:05:00,
2013-02-04 07:20:00,-999.0,-99.9,30.07,North,-999,-999.0,-999.0,-999,-99.99,,,0.00,weatherlink.com 1.10,2013-02-04 12:20:00,
2013-02-04 07:35:00,-999.0,-99.9,30.08,North,-999,-999.0,-999.0,-999,-99.99,,,0.00,weatherlink.com 1.10,2013-02-04 12:35:00,
2013-02-04 07:50:00,-999.0,-99.9,30.09,North,-999,-999.0,-999.0,-999,-99.99,,,0.00,weatherlink.com 1.10,2013-02-04 12:50:00,
2013-02-04 08:05:00,-999.0,-99.9,30.09,North,-999,-999.0,-999.0,-999,-99.99,,,0.00,weatherlink.com 1.10,2013-02-04 13:05:00,
2013-02-04 08:20:00,57.3,53.0,30.09,NNW,340,2.0,-999.0,86,-99.99,,,0.00,weatherlink.com 1.10,2013-02-04 13:20:00,
2013-02-04 08:35:00,57.7,53.0,30.10,NNW,340,1.0,-999.0,84,-99.99,,,0.00,weatherlink.com 1.10,2013-02-04 13:35:00,
2013-02-04 08:50:00,58.3,53.0,30.10,NNW,340,1.0,-999.0,83,-99.99,,,0.00,weatherlink.com 1.10,2013-02-04 13:50:00,
2013-02-04 09:05:00,59.0,53.0,30.11,NNW,340,1.0,-999.0,81,-99.99,,,0.00,weatherlink.com 1.10,2013-02-04 14:05:00,
2013-02-04 09:20:00,59.0,53.0,30.10,NNW,340,3.0,-999.0,81,-99.99,,,0.00,weatherlink.com 1.10,2013-02-04 14:20:00,
2013-02-04 09:35:00,59.7,53.0,30.11,ENE,77,1.0,-999.0,78,-99.99,,,0.00,weatherlink.com 1.10,2013-02-04 14:35:00,
2013-02-04 09:50:00,60.0,52.0,30.10,ENE,77,2.0,-999.0,76,-99.99,,,0.00,weatherlink.com 1.10,2013-02-04 14:50:00,
2013-02-04 10:05:00,60.7,51.0,30.11,ENE,77,2.0,-999.0,70,-99.99,,,0.00,weatherlink.com 1.10,2013-02-04 15:05:00,
2013-02-04 10:20:00,61.1,50.0,30.10,ENE,76,3.0,-999.0,67,-99.99,,,0.00,weatherlink.com 1.10,2013-02-04 15:20:00,
2013-02-04 10:35:00,62.0,46.0,30.10,East,98,3.0,-999.0,56,-99.99,,,0.00,weatherlink.com 1.10,2013-02-04 15:35:00,
2013-02-04 10:50:00,62.8,45.0,30.09,East,90,3.0,-999.0,53,-99.99,,,0.00,weatherlink.com 1.10,2013-02-04 15:50:00,
2013-02-04 11:05:00,63.4,42.0,30.09,ESE,104,3.0,-999.0,46,-99.99,,,0.00,weatherlink.com 1.10,2013-02-04 16:05:00,
2013-02-04 11:20:00,63.3,41.0,30.09,East,96,3.0,-999.0,44,-99.99,,,0.00,weatherlink.com 1.10,2013-02-04 16:20:00,
2013-02-04 11:35:00,64.1,40.0,30.08,East,95,4.0,-999.0,42,-99.99,,,0.00,weatherlink.com 1.10,2013-02-04 16:35:00,
2013-02-04 11:50:00,64.7,40.0,30.08,South,171,2.0,-999.0,40,-99.99,,,0.00,weatherlink.com 1.10,2013-02-04 16:50:00,
2013-02-04 12:05:00,65.3,39.0,30.07,SSE,148,2.0,-999.0,38,-99.99,,,0.00,weatherlink.com 1.10,2013-02-04 17:05:00,
2013-02-04 12:20:00,64.7,39.0,30.07,South,182,1.0,-999.0,39,-99.99,,,0.00,weatherlink.com 1.10,2013-02-04 17:20:00,
2013-02-04 12:35:00,64.7,40.0,30.06,South,184,2.0,-999.0,40,-99.99,,,0.00,weatherlink.com 1.10,2013-02-04 17:35:00,
2013-02-04 12:50:00,65.6,42.0,30.05,SSW,200,5.0,-999.0,42,-99.99,,,0.00,weatherlink.com 1.10,2013-02-04 17:50:00,
2013-02-04 13:06:00,66.5,43.0,30.05,SSW,199,4.0,-999.0,42,-99.99,,,0.00,weatherlink.com 1.10,2013-02-04 18:06:00,
2013-02-04 13:20:00,67.1,45.0,30.04,SSW,199,3.0,-999.0,46,-99.99,,,0.00,weatherlink.com 1.10,2013-02-04 18:20:00,
2013-02-04 13:35:00,67.2,43.0,30.03,SSW,194,1.0,-999.0,42,-99.99,,,0.00,weatherlink.com 1.10,2013-02-04 18:35:00,
2013-02-04 13:50:00,67.3,45.0,30.02,SSW,201,1.0,-999.0,44,-99.99,,,0.00,weatherlink.com 1.10,2013-02-04 18:50:00,
2013-02-04 14:05:00,68.2,45.0,30.02,SW,216,1.0,-999.0,44,-99.99,,,0.00,weatherlink.com 1.10,2013-02-04 19:05:00,
2013-02-04 14:20:00,67.3,46.0,30.01,SW,216,1.0,-999.0,47,-99.99,,,0.00,weatherlink.com 1.10,2013-02-04 19:20:00,
2013-02-04 14:35:00,66.7,46.0,30.01,SW,217,1.0,-999.0,48,-99.99,,,0.00,weatherlink.com 1.10,2013-02-04 19:35:00,
2013-02-04 14:50:00,65.6,47.0,30.02,SW,227,1.0,-999.0,52,-99.99,,,0.00,weatherlink.com 1.10,2013-02-04 19:50:00,
2013-02-04 15:05:00,65.5,48.0,30.02,WSW,252,0.0,-999.0,54,-99.99,,,0.00,weatherlink.com 1.10,2013-02-04 20:05:00,
2013-02-04 15:20:00,65.8,49.0,30.02,WSW,254,0.0,-999.0,54,-99.99,,,0.00,weatherlink.com 1.10,2013-02-04 20:20:00,
2013-02-04 15:35:00,65.4,49.0,30.02,WSW,254,1.0,-999.0,55,-99.99,,,0.00,weatherlink.com 1.10,2013-02-04 20:35:00,
2013-02-04 15:50:00,64.5,48.0,30.01,WSW,253,0.0,-999.0,56,-99.99,,,0.00,weatherlink.com 1.10,2013-02-04 20:50:00,
2013-02-04 16:05:00,64.3,49.0,30.02,WSW,249,0.0,-999.0,57,-99.99,,,0.00,weatherlink.com 1.10,2013-02-04 21:05:00,
2013-02-04 16:21:00,64.2,49.0,30.02,WSW,249,0.0,-999.0,59,-99.99,,,0.00,weatherlink.com 1.10,2013-02-04 21:21:00,
2013-02-04 16:35:00,64.0,50.0,30.03,WSW,249,0.0,-999.0,61,-99.99,,,0.00,weatherlink.com 1.10,2013-02-04 21:35:00,
2013-02-04 16:51:00,64.4,50.0,30.02,WSW,249,2.0,-999.0,59,-99.99,,,0.00,weatherlink.com 1.10,2013-02-04 21:51:00,
2013-02-04 17:06:00,65.0,50.0,30.02,WSW,249,2.0,-999.0,58,-99.99,,,0.00,weatherlink.com 1.10,2013-02-04 22:06:00,
2013-02-04 17:21:00,65.5,50.0,30.03,WSW,249,1.0,-999.0,57,-99.99,,,0.00,weatherlink.com 1.10,2013-02-04 22:21:00,
2013-02-04 17:36:00,64.9,49.0,30.03,WSW,254,1.0,-999.0,57,-99.99,,,0.00,weatherlink.com 1.10,2013-02-04 22:36:00,
2013-02-04 17:51:00,63.2,48.0,30.02,WSW,254,0.0,-999.0,58,-99.99,,,0.00,weatherlink.com 1.10,2013-02-04 22:51:00,
2013-02-04 18:06:00,62.8,48.0,30.03,WSW,254,0.0,-999.0,59,-99.99,,,0.00,weatherlink.com 1.10,2013-02-04 23:06:00,
2013-02-04 18:21:00,-999.0,-99.9,30.03,North,-999,-999.0,-999.0,-999,-99.99,,,0.00,weatherlink.com 1.10,2013-02-04 23:21:00,
2013-02-04 18:36:00,-999.0,-99.9,30.03,North,-999,-999.0,-999.0,-999,-99.99,,,0.00,weatherlink.com 1.10,2013-02-04 23:36:00,
2013-02-04 18:51:00,-999.0,-99.9,30.03,North,-999,-999.0,-999.0,-999,-99.99,,,0.00,weatherlink.com 1.10,2013-02-04 23:51:00,
2013-02-04 19:06:00,-999.0,-99.9,30.02,North,-999,-999.0,-999.0,-999,-99.99,,,0.00,weatherlink.com 1.10,2013-02-05 00:06:00,
2013-02-04 19:21:00,-999.0,-99.9,30.02,North,-999,-999.0,-999.0,-999,-99.99,,,0.00,weatherlink.com 1.10,2013-02-05 00:21:00,
2013-02-04 19:36:00,-999.0,-99.9,30.03,North,-999,-999.0,-999.0,-999,-99.99,,,0.00,weatherlink.com 1.10,2013-02-05 00:36:00,
2013-02-04 19:51:00,-999.0,-99.9,30.03,North,-999,-999.0,-999.0,-999,-99.99,,,0.00,weatherlink.com 1.10,2013-02-05 00:51:00,
2013-02-04 20:06:00,-999.0,-99.9,30.04,North,-999,-999.0,-999.0,-999,-99.99,,,0.00,weatherlink.com 1.10,2013-02-05 01:06:00,
2013-02-04 20:21:00,-999.0,-99.9,30.04,North,-999,-999.0,-999.0,-999,-99.99,,,0.00,weatherlink.com 1.10,2013-02-05 01:21:00,
2013-02-04 20:36:00,-999.0,-99.9,30.04,North,-999,-999.0,-999.0,-999,-99.99,,,0.00,weatherlink.com 1.10,2013-02-05 01:36:00,
2013-02-04 20:51:00,-999.0,-99.9,30.05,North,-999,-999.0,-999.0,-999,-99.99,,,0.00,weatherlink.com 1.10,2013-02-05 01:51:00,
2013-02-04 21:06:00,-999.0,-99.9,30.05,North,-999,-999.0,-999.0,-999,-99.99,,,0.00,weatherlink.com 1.10,2013-02-05 02:06:00,
2013-02-04 21:21:00,-999.0,-99.9,30.05,North,-999,-999.0,-999.0,-999,-99.99,,,0.00,weatherlink.com 1.10,2013-02-05 02:21:00,
2013-02-04 21:36:00,-999.0,-99.9,30.05,North,-999,-999.0,-999.0,-999,-99.99,,,0.00,weatherlink.com 1.10,2013-02-05 02:36:00,
2013-02-04 21:51:00,-999.0,-99.9,30.05,North,-999,-999.0,-999.0,-999,-99.99,,,0.00,weatherlink.com 1.10,2013-02-05 02:51:00,
2013-02-04 22:06:00,-999.0,-99.9,30.05,North,-999,-999.0,-999.0,-999,-99.99,,,0.00,weatherlink.com 1.10,2013-02-05 03:06:00,
2013-02-04 22:21:00,-999.0,-99.9,30.05,North,-999,-999.0,-999.0,-999,-99.99,,,0.00,weatherlink.com 1.10,2013-02-05 03:21:00,
2013-02-04 22:36:00,-999.0,-99.9,30.05,North,-999,-999.0,-999.0,-999,-99.99,,,0.00,weatherlink.com 1.10,2013-02-05 03:36:00,
2013-02-04 22:51:00,-999.0,-99.9,30.05,North,-999,-999.0,-999.0,-999,-99.99,,,0.00,weatherlink.com 1.10,2013-02-05 03:51:00,
2013-02-04 23:06:00,-999.0,-99.9,30.05,North,-999,-999.0,-999.0,-999,-99.99,,,0.00,weatherlink.com 1.10,2013-02-05 04:06:00,
2013-02-04 23:21:00,-999.0,-99.9,30.05,North,-999,-999.0,-999.0,-999,-99.99,,,0.00,weatherlink.com 1.10,2013-02-05 04:21:00,
2013-02-04 23:36:00,-999.0,-99.9,30.05,North,-999,-999.0,-999.0,-999,-99.99,,,0.00,weatherlink.com 1.10,2013-02-05 04:36:00,
2013-02-04 23:51:00,-999.0,-99.9,30.04,North,-999,-999.0,-999.0,-999,-99.99,,,0.00,weatherlink.com 1.10,2013-02-05 04:51:00,